Time;durP1;ratioP1;P1;durP2;ratioP2;P2;SDS_P1;SDS_P2;PMS_P1;PMS_P2;Temp;Humidity;BMP_temperature;BMP_pressure;BME280_temperature;BME280_humidity;BME280_pressure;Samples;Min_cycle;Max_cycle;Signal;HPM_P1;HPM_P2
2022/11/10 00:01:35;;;;;;;6.60;2.00;;;12.90;75.20;;;;;;5043857;28;20052;-83
2022/11/10 00:04:38;;;;;;;6.40;1.77;;;12.90;75.20;;;;;;5030657;28;20036;-84
2022/11/10 00:07:41;;;;;;;6.07;1.73;;;13.00;75.30;;;;;;5030566;28;20098;-85
2022/11/10 00:10:56;;;;;;;7.45;1.85;;;12.90;75.10;;;;;;5039003;28;20066;-84
2022/11/10 00:17:21;;;;;;;7.78;1.77;;;13.00;75.20;;;;;;5049173;28;20059;-86
2022/11/10 00:20:24;;;;;;;9.20;1.67;;;13.00;75.10;;;;;;5049628;28;20075;-81
2022/11/10 00:23:27;;;;;;;8.43;2.00;;;13.00;75.10;;;;;;5043456;28;20121;-82
2022/11/10 00:26:30;;;;;;;6.97;1.50;;;13.00;75.00;;;;;;5034403;28;20102;-83
2022/11/10 00:29:34;;;;;;;7.25;1.98;;;13.00;75.00;;;;;;5030990;28;20044;-80
2022/11/10 00:32:37;;;;;;;8.00;1.75;;;13.10;75.10;;;;;;5043843;28;20091;-82
2022/11/10 00:35:40;;;;;;;9.83;2.43;;;13.00;75.00;;;;;;5041504;28;20379;-81
2022/11/10 00:38:43;;;;;;;6.25;1.50;;;13.10;75.10;;;;;;5041954;28;20835;-81
2022/11/10 00:41:47;;;;;;;7.80;1.80;;;13.10;75.10;;;;;;5041132;28;20236;-80
2022/11/10 00:44:50;;;;;;;6.95;1.70;;;13.10;75.10;;;;;;5043360;28;20396;-81
2022/11/10 00:47:53;;;;;;;5.07;1.30;;;13.10;75.00;;;;;;5034938;28;20132;-81
2022/11/10 00:50:56;;;;;;;5.47;1.77;;;13.10;75.00;;;;;;5047987;28;20067;-80
2022/11/10 00:54:00;;;;;;;8.25;2.17;;;13.20;75.10;;;;;;5039066;28;20114;-81
2022/11/10 00:57:03;;;;;;;5.82;1.52;;;13.20;75.10;;;;;;5037428;28;20040;-81
2022/11/10 01:00:07;;;;;;;4.97;1.27;;;13.20;75.00;;;;;;5035412;28;20088;-81
2022/11/10 01:03:15;;;;;;;7.30;1.45;;;13.20;74.90;;;;;;5047316;28;21098;-82
2022/11/10 01:06:20;;;;;;;6.30;1.25;;;13.20;74.90;;;;;;5048339;28;20056;-84
2022/11/10 01:09:23;;;;;;;7.95;1.70;;;13.20;74.90;;;;;;5045485;28;20039;-86
2022/11/10 01:12:30;;;;;;;7.30;2.05;;;13.20;74.90;;;;;;5047172;28;20152;-86
2022/11/10 01:15:33;;;;;;;6.78;1.48;;;13.20;74.90;;;;;;5047570;28;20039;-84
2022/11/10 01:18:36;;;;;;;5.50;1.45;;;13.20;74.90;;;;;;5047347;28;20040;-84
2022/11/10 01:21:40;;;;;;;6.78;1.73;;;13.20;74.90;;;;;;5047205;28;20206;-83
2022/11/10 01:24:43;;;;;;;4.70;1.13;;;13.10;74.70;;;;;;5037687;28;20112;-82
2022/11/10 01:27:46;;;;;;;6.00;2.65;;;13.10;74.70;;;;;;5035122;28;20443;-83
2022/11/10 01:30:55;;;;;;;6.32;1.77;;;13.10;74.70;;;;;;5046702;28;20436;-85
2022/11/10 01:33:59;;;;;;;6.57;1.55;;;13.10;74.70;;;;;;5047067;28;20400;-86
2022/11/10 01:37:02;;;;;;;11.45;1.73;;;13.10;74.70;;;;;;5048375;28;20130;-88
2022/11/10 01:40:06;;;;;;;8.93;1.65;;;13.10;74.80;;;;;;5047023;28;20143;-85
2022/11/10 01:43:10;;;;;;;6.93;2.05;;;13.10;74.70;;;;;;5041021;28;20059;-85
2022/11/10 01:46:14;;;;;;;4.15;1.45;;;13.10;74.70;;;;;;5047679;28;20546;-84
2022/11/10 01:49:19;;;;;;;;;;;13.00;74.60;;;;;;5052116;28;20052;-82
2022/11/10 01:52:23;;;;;;;5.90;1.80;;;13.00;74.60;;;;;;5046502;28;19923;-85
2022/11/10 01:55:27;;;;;;;;;;;13.00;74.60;;;;;;5048328;28;20068;-84
2022/11/10 01:58:32;;;;;;;;;;;13.00;74.60;;;;;;5064748;28;19927;-85
2022/11/10 02:01:35;;;;;;;5.18;1.30;;;13.00;74.50;;;;;;5073257;28;20006;-85
2022/11/10 02:04:40;;;;;;;5.78;1.98;;;13.00;74.50;;;;;;5071348;28;20029;-82
2022/11/10 02:07:44;;;;;;;4.47;1.50;;;13.00;74.60;;;;;;5049304;28;20048;-84
2022/11/10 02:10:48;;;;;;;7.97;1.23;;;13.00;74.60;;;;;;5051757;28;20039;-85
2022/11/10 02:13:52;;;;;;;5.15;0.98;;;13.00;74.60;;;;;;5057389;28;20071;-85
2022/11/10 02:16:55;;;;;;;6.15;1.48;;;13.00;74.50;;;;;;5047198;28;20698;-84
2022/11/10 02:19:59;;;;;;;;;;;13.00;74.50;;;;;;5045591;28;20230;-86
2022/11/10 02:23:14;;;;;;;3.42;1.23;;;13.10;74.60;;;;;;5041435;28;20193;-86
2022/11/10 02:26:21;;;;;;;8.25;1.50;;;13.10;74.50;;;;;;5051767;28;20044;-85
2022/11/10 02:29:25;;;;;;;5.80;1.42;;;13.10;74.50;;;;;;5046589;28;20102;-84
2022/11/10 02:32:28;;;;;;;7.57;1.88;;;13.10;74.40;;;;;;5046591;28;20044;-84
2022/11/10 02:35:31;;;;;;;4.57;1.15;;;13.10;75.00;;;;;;5048377;28;20114;-86
2022/11/10 02:38:35;;;;;;;5.95;1.45;;;13.10;74.40;;;;;;5046917;28;20099;-87
2022/11/10 02:41:38;;;;;;;6.93;1.52;;;13.10;74.40;;;;;;5046622;28;20546;-83
2022/11/10 02:44:41;;;;;;;4.15;1.92;;;13.20;74.50;;;;;;5046560;28;20111;-85
2022/11/10 02:47:44;;;;;;;;;;;13.20;74.50;;;;;;5030892;28;20056;-84
2022/11/10 02:50:47;;;;;;;4.65;1.48;;;13.20;74.50;;;;;;5039853;28;19939;-83
2022/11/10 02:53:51;;;;;;;5.75;1.50;;;13.20;74.40;;;;;;5039483;28;20044;-81
2022/11/10 02:56:54;;;;;;;;;;;13.20;74.40;;;;;;5031308;28;20041;-86
2022/11/10 02:59:57;;;;;;;3.97;1.20;;;13.20;74.40;;;;;;5030156;28;19967;-83
2022/11/10 03:03:01;;;;;;;6.50;1.33;;;13.20;74.30;;;;;;5030575;28;20296;-84
2022/11/10 03:06:05;;;;;;;8.05;1.38;;;13.30;74.50;;;;;;5029318;28;20114;-82
2022/11/10 03:09:08;;;;;;;4.38;1.60;;;13.30;74.50;;;;;;5040458;28;20119;-84
2022/11/10 03:12:11;;;;;;;10.75;2.00;;;13.30;74.40;;;;;;5047823;28;20291;-84
2022/11/10 03:15:14;;;;;;;3.90;1.10;;;13.30;74.40;;;;;;5029336;28;20413;-85
2022/11/10 03:18:17;;;;;;;4.82;1.23;;;13.30;74.40;;;;;;5029390;28;20040;-85
2022/11/10 03:21:20;;;;;;;5.25;1.30;;;13.40;74.50;;;;;;5036211;28;20467;-85
2022/11/10 03:24:23;;;;;;;9.25;1.70;;;13.40;74.50;;;;;;5049954;28;20039;-85
2022/11/10 03:27:26;;;;;;;6.37;1.50;;;13.40;74.40;;;;;;5049842;28;20043;-86
2022/11/10 03:30:30;;;;;;;3.95;1.40;;;13.40;74.40;;;;;;5044659;28;20631;-86
2022/11/10 03:33:33;;;;;;;5.57;1.30;;;13.40;74.40;;;;;;5029845;28;20064;-87
2022/11/10 03:36:36;;;;;;;5.15;1.70;;;13.40;74.30;;;;;;5037860;28;20043;-86
2022/11/10 03:39:39;;;;;;;7.38;2.60;;;13.40;74.30;;;;;;5047283;28;20097;-86
2022/11/10 03:42:43;;;;;;;3.28;1.15;;;13.50;74.50;;;;;;5045570;28;20431;-86
2022/11/10 03:45:47;;;;;;;6.20;1.77;;;13.50;74.40;;;;;;5048357;28;20475;-84
2022/11/10 03:48:49;;;;;;;6.57;1.57;;;13.50;74.40;;;;;;5049018;28;20047;-86
2022/11/10 03:51:52;;;;;;;10.20;1.58;;;13.50;74.40;;;;;;5047339;28;20288;-85
2022/11/10 03:54:56;;;;;;;5.60;1.40;;;13.50;74.40;;;;;;5048590;28;20059;-86
2022/11/10 03:58:03;;;;;;;3.75;1.38;;;13.50;74.30;;;;;;5035484;28;20086;-85
2022/11/10 04:01:06;;;;;;;7.90;1.15;;;13.50;74.30;;;;;;5047305;28;20551;-86
2022/11/10 04:08:57;;;;;;;5.88;1.52;;;13.50;74.20;;;;;;5048036;28;20035;-87
2022/11/10 04:10:55;;;;;;;7.47;1.55;;;13.60;74.30;;;;;;5028971;28;20033;-92
2022/11/10 04:17:21;;;;;;;5.55;1.55;;;13.60;74.20;;;;;;5048973;28;20039;-84
2022/11/10 04:20:24;;;;;;;4.53;0.93;;;13.60;74.20;;;;;;5027520;28;20520;-83
2022/11/10 04:23:33;;;;;;;5.82;1.10;;;13.70;74.40;;;;;;5028213;28;20100;-83
2022/11/10 04:26:37;;;;;;;7.15;1.40;;;13.70;74.30;;;;;;5047674;28;20136;-84
2022/11/10 04:29:41;;;;;;;7.25;1.10;;;13.70;74.20;;;;;;5047694;28;20457;-84
2022/11/10 04:32:44;;;;;;;6.85;1.25;;;13.70;74.20;;;;;;5041937;28;20157;-84
2022/11/10 04:35:47;;;;;;;6.47;1.10;;;13.80;74.30;;;;;;5028085;28;20076;-83
2022/11/10 04:38:50;;;;;;;7.32;1.23;;;13.80;74.30;;;;;;5046419;28;20051;-83
2022/11/10 04:41:53;;;;;;;2.95;1.67;;;13.80;74.30;;;;;;5047610;28;20073;-84
2022/11/10 04:44:56;;;;;;;5.10;1.25;;;13.80;74.30;;;;;;5048099;28;20102;-86
2022/11/10 04:48:00;;;;;;;4.28;1.17;;;13.80;74.20;;;;;;5028330;28;20064;-86
2022/11/10 04:51:06;;;;;;;6.67;2.50;;;13.80;74.20;;;;;;5028052;28;20095;-86
2022/11/10 04:54:10;;;;;;;4.50;1.05;;;13.80;74.20;;;;;;5032820;28;20071;-87
2022/11/10 04:57:13;;;;;;;4.40;2.05;;;13.80;74.20;;;;;;5029360;28;20045;-91
2022/11/10 05:00:17;;;;;;;3.15;1.00;;;13.80;74.70;;;;;;5047406;28;20056;-87
2022/11/10 05:03:19;;;;;;;2.88;1.10;;;13.90;74.30;;;;;;5031848;28;20164;-88
2022/11/10 05:06:23;;;;;;;4.28;0.90;;;13.90;74.30;;;;;;5028966;28;20056;-86
2022/11/10 05:09:26;;;;;;;;;;;13.90;74.20;;;;;;5042544;28;20095;-90
2022/11/10 05:12:29;;;;;;;3.72;1.50;;;14.00;74.40;;;;;;5047115;28;20414;-83
2022/11/10 05:15:32;;;;;;;4.70;0.85;;;14.00;74.30;;;;;;5047459;28;20550;-85
2022/11/10 05:18:36;;;;;;;6.20;1.48;;;14.00;74.30;;;;;;5047440;28;20120;-82
2022/11/10 05:21:39;;;;;;;;;;;14.00;74.30;;;;;;5046431;28;20075;-80
2022/11/10 05:24:42;;;;;;;5.82;1.00;;;14.10;74.40;;;;;;5058210;28;19915;-81
2022/11/10 05:27:45;;;;;;;4.68;1.15;;;14.10;74.30;;;;;;5055887;28;20042;-83
2022/11/10 05:30:48;;;;;;;4.28;1.67;;;14.10;74.40;;;;;;5054424;28;20086;-87
2022/11/10 05:33:52;;;;;;;;;;;14.10;74.40;;;;;;5055656;28;20035;-90
2022/11/10 05:36:55;;;;;;;7.60;2.03;;;14.10;74.40;;;;;;5071076;28;20377;-91
2022/11/10 05:39:58;;;;;;;7.80;2.63;;;14.10;74.30;;;;;;5049897;28;20403;-85
2022/11/10 05:43:01;;;;;;;4.40;1.10;;;14.10;74.40;;;;;;5051077;28;20083;-90
2022/11/10 05:46:04;;;;;;;3.70;1.20;;;14.10;74.40;;;;;;5035069;28;20127;-90
2022/11/10 05:49:07;;;;;;;2.58;1.75;;;14.20;74.60;;;;;;5039581;28;20097;-94
2022/11/10 05:52:10;;;;;;;4.28;0.90;;;14.20;74.60;;;;;;5050385;28;20031;-93
2022/11/10 05:55:15;;;;;;;6.43;1.63;;;14.20;74.70;;;;;;5049730;28;20063;-91
2022/11/10 05:58:18;;;;;;;3.30;0.93;;;14.20;74.70;;;;;;5048346;28;20597;-85
2022/11/10 06:01:21;;;;;;;6.60;1.25;;;14.20;74.80;;;;;;5048177;28;20427;-91
2022/11/10 06:04:25;;;;;;;4.22;1.05;;;14.20;74.80;;;;;;5032400;28;20041;-94
2022/11/10 06:07:28;;;;;;;7.50;1.08;;;14.20;74.80;;;;;;5038963;28;20539;-86
2022/11/10 06:10:33;;;;;;;6.53;1.38;;;14.30;75.00;;;;;;5037660;28;20637;-86
2022/11/10 06:13:36;;;;;;;4.82;1.45;;;14.20;74.80;;;;;;5035603;28;20092;-86
2022/11/10 06:16:39;;;;;;;5.25;1.50;;;14.30;75.00;;;;;;5052673;28;20174;-85
2022/11/10 06:19:42;;;;;;;5.22;1.08;;;14.30;75.00;;;;;;5050291;28;20056;-85
2022/11/10 06:23:11;;;;;;;4.85;1.05;;;14.30;75.10;;;;;;5053340;28;20140;-84
2022/11/10 06:26:14;;;;;;;2.15;0.90;;;14.30;75.10;;;;;;5052557;28;20081;-89
2022/11/10 06:29:17;;;;;;;5.25;0.95;;;14.30;75.10;;;;;;5052011;28;20059;-85
2022/11/10 06:32:20;;;;;;;4.65;0.93;;;14.20;74.90;;;;;;5050352;28;20054;-85
2022/11/10 06:35:24;;;;;;;4.10;0.90;;;14.20;75.00;;;;;;5043877;28;20040;-84
2022/11/10 06:38:27;;;;;;;4.25;1.58;;;14.20;75.00;;;;;;5046822;28;20557;-84
2022/11/10 06:41:32;;;;;;;5.93;1.48;;;14.20;75.00;;;;;;5055916;28;20087;-84
2022/11/10 06:44:36;;;;;;;4.88;1.10;;;14.20;75.10;;;;;;5045548;28;20085;-87
2022/11/10 06:47:39;;;;;;;4.82;1.33;;;14.20;75.20;;;;;;5053291;28;20087;-86
2022/11/10 06:50:42;;;;;;;5.90;1.73;;;14.10;75.10;;;;;;5058110;28;20416;-88
2022/11/10 06:53:46;;;;;;;9.18;2.53;;;14.10;75.10;;;;;;5046844;28;20154;-93
2022/11/10 06:56:49;;;;;;;5.57;1.42;;;14.10;75.40;;;;;;5041234;28;20186;-86
2022/11/10 06:59:53;;;;;;;5.25;1.80;;;14.20;75.80;;;;;;5048213;28;20125;-83
2022/11/10 07:03:01;;;;;;;11.68;2.03;;;14.20;76.00;;;;;;5052998;28;20095;-92
2022/11/10 07:06:05;;;;;;;7.05;1.83;;;14.20;76.30;;;;;;5050933;28;20071;-83
2022/11/10 07:09:08;;;;;;;6.70;1.75;;;14.20;76.40;;;;;;5051142;28;20091;-83
2022/11/10 07:12:11;;;;;;;7.53;1.37;;;14.20;76.60;;;;;;5051103;28;20044;-91
2022/11/10 07:15:14;;;;;;;6.32;1.55;;;14.30;76.80;;;;;;5048000;28;20040;-82
2022/11/10 07:18:17;;;;;;;7.13;1.50;;;14.30;76.90;;;;;;5044795;28;20090;-83
2022/11/10 07:21:20;;;;;;;6.53;1.42;;;14.30;77.10;;;;;;5044682;28;20047;-84
2022/11/10 07:24:23;;;;;;;3.75;1.27;;;14.30;77.20;;;;;;5037810;28;20035;-81
2022/11/10 07:27:27;;;;;;;6.03;1.50;;;14.30;77.30;;;;;;5042776;28;20056;-83
2022/11/10 07:30:32;;;;;;;7.70;1.50;;;14.40;77.60;;;;;;5039667;28;20040;-85
2022/11/10 07:33:36;;;;;;;7.05;1.20;;;14.40;77.80;;;;;;5044108;28;20122;-85
2022/11/10 07:36:39;;;;;;;7.03;1.38;;;14.40;77.80;;;;;;5044884;28;20036;-88
2022/11/10 07:39:42;;;;;;;5.80;2.25;;;14.40;78.00;;;;;;5040816;28;20126;-85
2022/11/10 07:42:46;;;;;;;9.35;1.33;;;14.50;78.20;;;;;;5042950;28;20076;-85
2022/11/10 07:45:50;;;;;;;4.82;1.55;;;14.50;78.20;;;;;;5044141;28;20095;-86
2022/11/10 07:48:53;;;;;;;4.28;1.08;;;14.50;78.30;;;;;;5043362;28;20048;-86
2022/11/10 07:51:57;;;;;;;6.47;1.33;;;14.50;78.40;;;;;;5039662;28;20102;-85
2022/11/10 07:55:00;;;;;;;7.05;1.63;;;14.60;78.60;;;;;;5044210;28;20091;-88
2022/11/10 07:58:04;;;;;;;5.18;1.30;;;14.60;78.70;;;;;;5042024;28;20052;-84
2022/11/10 08:01:08;;;;;;;5.38;1.30;;;14.60;78.80;;;;;;5033776;28;20122;-82
2022/11/10 08:04:11;;;;;;;7.57;1.60;;;14.70;78.90;;;;;;5031885;28;20044;-87
2022/11/10 08:07:14;;;;;;;4.30;1.27;;;14.70;79.00;;;;;;5031011;28;20044;-88
2022/11/10 08:10:17;;;;;;;10.65;1.98;;;14.70;78.90;;;;;;5042066;28;20537;-85
2022/11/10 08:13:21;;;;;;;6.60;2.00;;;14.80;79.10;;;;;;5044005;28;20095;-85
2022/11/10 08:16:25;;;;;;;7.30;1.60;;;14.80;79.10;;;;;;5039975;28;20093;-83
2022/11/10 08:19:28;;;;;;;;;;;14.80;79.00;;;;;;5042088;28;20063;-89
2022/11/10 08:22:32;;;;;;;5.20;1.52;;;14.90;79.10;;;;;;5053720;28;19961;-88
2022/11/10 08:25:36;;;;;;;8.07;1.88;;;14.90;78.80;;;;;;5052297;28;20124;-94
2022/11/10 08:28:39;;;;;;;12.55;1.85;;;15.00;79.00;;;;;;5050946;28;20036;-85
2022/11/10 08:31:43;;;;;;;;;;;15.00;78.90;;;;;;5053493;28;20024;-84
2022/11/10 08:34:46;;;;;;;7.80;1.50;;;15.00;78.80;;;;;;5060621;28;19955;-84
2022/11/10 08:37:49;;;;;;;4.65;1.17;;;15.10;79.30;;;;;;5066765;28;20040;-87
2022/11/10 08:40:56;;;;;;;4.53;1.25;;;15.10;78.70;;;;;;5049192;28;20592;-90
2022/11/10 08:43:59;;;;;;;6.93;1.70;;;15.10;78.70;;;;;;5046073;28;20063;-92
2022/11/10 08:47:03;;;;;;;4.65;1.38;;;15.20;78.70;;;;;;5036615;28;20064;-91
2022/11/10 08:50:06;;;;;;;4.13;1.00;;;15.20;78.60;;;;;;5038191;28;20103;-91
2022/11/10 08:53:16;;;;;;;9.65;2.65;;;15.30;78.70;;;;;;5036810;28;20055;-88
2022/11/10 08:56:19;;;;;;;10.95;1.45;;;15.30;78.60;;;;;;5028259;28;20095;-88
2022/11/10 08:59:22;;;;;;;5.40;1.50;;;15.40;78.60;;;;;;5043199;28;20114;-87
2022/11/10 09:02:26;;;;;;;;;;;15.50;78.60;;;;;;5046122;28;20206;-87
2022/11/10 09:05:29;;;;;;;6.10;1.52;;;15.60;78.50;;;;;;5043337;28;19996;-89
2022/11/10 09:08:33;;;;;;;6.55;1.92;;;15.70;78.40;;;;;;5036469;28;20094;-87
2022/11/10 09:11:36;;;;;;;;;;;15.80;78.40;;;;;;5039122;28;20040;-86
2022/11/10 09:14:42;;;;;;;5.50;1.53;;;15.80;78.20;;;;;;5048703;28;19939;-84
2022/11/10 09:17:46;;;;;;;7.93;1.27;;;15.90;78.10;;;;;;5040105;28;20779;-85
2022/11/10 09:20:49;;;;;;;4.70;1.63;;;15.90;78.00;;;;;;5038297;28;20098;-85
2022/11/10 09:23:52;;;;;;;5.63;1.42;;;16.00;78.10;;;;;;5046522;28;20048;-86
2022/11/10 09:26:55;;;;;;;5.00;1.23;;;16.00;78.00;;;;;;5034351;28;20122;-84
2022/11/10 09:29:58;;;;;;;5.70;0.98;;;16.00;77.80;;;;;;5044887;28;20044;-83
2022/11/10 09:33:01;;;;;;;5.70;1.25;;;16.10;77.90;;;;;;5045533;28;20048;-87
2022/11/10 09:36:05;;;;;;;7.75;2.17;;;16.10;77.70;;;;;;5046547;28;20035;-85
2022/11/10 09:39:09;;;;;;;5.22;1.60;;;16.20;77.80;;;;;;5034887;28;20045;-83
2022/11/10 09:42:32;;;;;;;8.63;1.65;;;16.20;77.60;;;;;;5039922;28;20503;-83
2022/11/10 09:45:41;;;;;;;6.57;1.80;;;16.30;77.50;;;;;;5041843;28;20490;-83
2022/11/10 09:48:51;;;;;;;4.63;1.00;;;16.40;77.50;;;;;;5045481;28;20294;-83
2022/11/10 09:51:57;;;;;;;4.43;1.92;;;16.30;77.20;;;;;;5045719;28;20134;-83
2022/11/10 09:55:32;;;;;;;6.60;2.42;;;16.30;77.20;;;;;;5046677;28;20040;-84
2022/11/10 09:58:43;;;;;;;6.13;1.45;;;16.30;77.00;;;;;;5046363;28;20503;-89
2022/11/10 10:02:19;;;;;;;4.78;1.60;;;16.30;76.90;;;;;;5047874;28;20090;-90
2022/11/10 10:05:34;;;;;;;6.43;1.48;;;16.40;77.00;;;;;;5045273;28;20534;-92
2022/11/10 10:08:41;;;;;;;4.82;1.30;;;16.40;76.90;;;;;;5046341;28;20563;-92
2022/11/10 10:12:12;;;;;;;6.55;1.05;;;16.50;77.10;;;;;;5032898;28;20088;-86
2022/11/10 10:15:20;;;;;;;4.93;1.40;;;16.50;76.90;;;;;;5042563;28;20131;-88
2022/11/10 10:19:00;;;;;;;6.50;1.33;;;16.50;76.80;;;;;;5047276;28;20039;-87
2022/11/10 10:22:22;;;;;;;5.95;1.38;;;16.50;77.20;;;;;;5046523;28;20100;-86
2022/11/10 10:25:27;;;;;;;5.18;1.17;;;16.60;76.70;;;;;;5039120;28;20075;-85
2022/11/10 10:28:37;;;;;;;3.90;1.17;;;16.70;76.70;;;;;;5042550;28;20086;-88
2022/11/10 10:31:44;;;;;;;5.50;1.80;;;16.70;76.70;;;;;;5035403;28;20044;-87
2022/11/10 10:34:48;;;;;;;4.03;1.48;;;16.70;76.60;;;;;;5034946;28;20063;-87
2022/11/10 10:37:54;;;;;;;6.93;2.17;;;16.70;76.60;;;;;;5032266;28;20113;-87
2022/11/10 10:41:09;;;;;;;5.65;1.38;;;16.70;77.20;;;;;;5046520;28;20495;-94
2022/11/10 10:44:18;;;;;;;5.93;1.70;;;16.70;76.60;;;;;;5046524;28;20487;-85
2022/11/10 10:47:36;;;;;;;5.20;2.03;;;16.70;76.60;;;;;;5034117;28;20068;-84
2022/11/10 10:50:41;;;;;;;8.27;1.77;;;16.80;76.60;;;;;;5044128;28;20802;-86
2022/11/10 10:53:46;;;;;;;4.95;1.65;;;16.90;76.50;;;;;;5043449;28;20136;-89
2022/11/10 10:57:04;;;;;;;4.43;1.55;;;17.00;76.50;;;;;;5045778;28;20055;-86
2022/11/10 11:00:19;;;;;;;6.22;1.27;;;17.10;76.40;;;;;;5045386;28;20041;-85
2022/11/10 11:03:50;;;;;;;6.85;1.50;;;17.10;76.20;;;;;;5045536;28;20048;-89
2022/11/10 11:07:05;;;;;;;5.82;1.33;;;17.20;76.00;;;;;;5040484;28;20040;-85
2022/11/10 11:10:34;;;;;;;7.53;2.05;;;17.20;75.90;;;;;;5045144;28;20090;-85
2022/11/10 11:13:38;;;;;;;2.97;1.17;;;17.30;75.80;;;;;;5032526;28;20131;-85
2022/11/10 11:17:20;;;;;;;6.85;1.88;;;17.30;75.70;;;;;;5044790;28;20047;-83
2022/11/10 11:20:37;;;;;;;5.63;1.90;;;17.40;75.70;;;;;;4984734;28;20631;-88
2022/11/10 11:23:55;;;;;;;3.33;1.08;;;17.50;75.60;;;;;;5031569;28;20099;-85
2022/11/10 11:27:24;;;;;;;2.35;1.00;;;17.60;75.40;;;;;;5035028;28;20086;-86
2022/11/10 11:30:40;;;;;;;5.05;1.42;;;17.70;75.20;;;;;;5045041;28;20071;-85
2022/11/10 11:33:56;;;;;;;4.75;1.35;;;17.80;75.30;;;;;;5036093;28;20052;-85
2022/11/10 11:37:38;;;;;;;6.53;1.35;;;17.80;75.10;;;;;;5044044;28;20032;-84
2022/11/10 11:40:50;;;;;;;4.85;2.00;;;17.90;75.00;;;;;;5039669;28;20106;-84
2022/11/10 11:44:12;;;;;;;8.35;1.55;;;17.90;74.80;;;;;;5043839;28;20368;-92
2022/11/10 11:47:59;;;;;;;6.22;1.95;;;18.00;74.60;;;;;;5044784;28;20491;-86
2022/11/10 11:51:13;;;;;;;3.25;1.02;;;18.00;74.40;;;;;;5032641;28;20043;-87
2022/11/10 11:54:29;;;;;;;7.82;1.55;;;18.10;74.50;;;;;;5046156;28;20132;-86
2022/11/10 11:57:57;;;;;;;5.45;2.55;;;18.20;74.40;;;;;;5047770;28;20079;-88
2022/11/10 12:01:28;;;;;;;5.45;1.05;;;18.20;73.90;;;;;;5042373;28;20044;-92
2022/11/10 12:04:48;;;;;;;6.55;1.48;;;18.30;73.90;;;;;;5038238;28;20039;-84
2022/11/10 12:08:00;;;;;;;4.15;1.13;;;18.40;73.80;;;;;;5041676;28;20066;-87
2022/11/10 12:11:22;;;;;;;7.07;1.42;;;18.50;73.90;;;;;;5044157;28;20137;-85
2022/11/10 12:14:43;;;;;;;5.15;1.45;;;18.50;73.60;;;;;;5037051;28;20041;-88
2022/11/10 12:17:55;;;;;;;7.55;1.92;;;18.50;73.30;;;;;;5043469;28;20117;-95
2022/11/10 12:21:02;;;;;;;7.88;2.25;;;18.50;73.20;;;;;;5043532;28;20455;-89
2022/11/10 12:24:32;;;;;;;4.68;1.50;;;18.60;73.30;;;;;;5046012;28;20051;-91
2022/11/10 12:27:41;;;;;;;6.32;1.80;;;18.70;73.20;;;;;;5037267;28;20390;-88
2022/11/10 12:30:48;;;;;;;5.75;1.58;;;18.70;73.10;;;;;;5037261;28;20512;-90
2022/11/10 12:33:57;;;;;;;6.68;2.17;;;18.70;73.00;;;;;;5043619;28;20075;-89
2022/11/10 12:37:05;;;;;;;3.30;1.17;;;18.70;72.70;;;;;;5045082;28;20040;-91
2022/11/10 12:40:14;;;;;;;4.35;1.60;;;18.70;72.70;;;;;;5039012;28;20051;-90
2022/11/10 12:43:38;;;;;;;4.10;1.10;;;18.70;72.60;;;;;;5040149;28;20094;-89
2022/11/10 12:46:43;;;;;;;5.87;1.70;;;18.70;72.60;;;;;;5044191;28;20035;-88
2022/11/10 12:50:00;;;;;;;4.47;1.58;;;18.60;72.50;;;;;;5039584;28;20300;-89
2022/11/10 12:53:19;;;;;;;5.70;1.42;;;18.60;72.40;;;;;;5044226;28;20079;-88
2022/11/10 12:56:58;;;;;;;6.40;1.35;;;18.60;72.30;;;;;;5042932;28;20056;-92
2022/11/10 13:00:21;;;;;;;8.23;1.63;;;18.50;72.20;;;;;;5038640;28;20039;-90
2022/11/10 13:03:29;;;;;;;7.25;1.10;;;18.50;72.20;;;;;;5041342;28;20036;-89
2022/11/10 13:06:39;;;;;;;3.80;1.20;;;18.50;72.30;;;;;;5044416;28;20063;-89
2022/11/10 13:09:43;;;;;;;6.07;1.50;;;18.50;72.10;;;;;;5043160;28;20344;-89
2022/11/10 13:13:05;;;;;;;4.32;1.45;;;18.50;72.00;;;;;;5039963;28;20047;-87
2022/11/10 13:16:09;;;;;;;3.03;1.10;;;18.60;71.80;;;;;;5043799;28;20055;-83
2022/11/10 13:19:22;;;;;;;4.35;1.30;;;18.60;71.80;;;;;;5037952;28;20510;-84
2022/11/10 13:22:39;;;;;;;4.82;1.70;;;18.70;71.60;;;;;;5035890;28;20047;-85
2022/11/10 13:26:00;;;;;;;3.03;0.93;;;18.70;71.50;;;;;;5043372;28;20055;-85
2022/11/10 13:29:37;;;;;;;2.13;0.70;;;18.70;71.30;;;;;;5039319;28;20059;-86
2022/11/10 13:32:40;;;;;;;3.25;1.13;;;18.80;71.20;;;;;;5043632;28;20102;-83
2022/11/10 13:35:49;;;;;;;2.88;0.80;;;18.80;71.40;;;;;;5042939;28;20064;-87
2022/11/10 13:38:54;;;;;;;6.20;1.23;;;18.80;71.20;;;;;;5038445;28;20048;-85
2022/11/10 13:42:06;;;;;;;4.18;1.25;;;18.80;71.10;;;;;;5036429;28;20055;-88
2022/11/10 13:45:33;;;;;;;3.88;1.63;;;18.80;71.10;;;;;;5035843;28;20066;-90
2022/11/10 13:49:11;;;;;;;4.55;1.02;;;18.70;70.70;;;;;;5046724;28;20072;-86
2022/11/10 13:52:33;;;;;;;4.82;1.20;;;18.70;70.80;;;;;;5044438;28;20107;-84
2022/11/10 13:55:48;;;;;;;2.58;1.23;;;18.60;70.80;;;;;;5046671;28;20076;-83
2022/11/10 13:58:52;;;;;;;7.68;1.70;;;18.60;70.90;;;;;;5036755;28;20058;-83
2022/11/10 14:02:32;;;;;;;3.90;1.02;;;18.50;70.80;;;;;;5035315;28;20076;-81
2022/11/10 14:05:40;;;;;;;3.30;0.93;;;18.50;70.70;;;;;;5046915;28;20106;-92
2022/11/10 14:09:10;;;;;;;5.57;1.15;;;18.40;70.80;;;;;;5048067;28;20043;-90
2022/11/10 14:12:32;;;;;;;4.05;1.23;;;18.30;70.50;;;;;;5036145;28;20044;-87
2022/11/10 14:15:42;;;;;;;6.30;1.75;;;18.30;70.60;;;;;;5042705;28;20036;-86
2022/11/10 14:18:55;;;;;;;5.63;1.50;;;18.30;70.80;;;;;;5039388;28;20806;-88
2022/11/10 14:22:33;;;;;;;5.82;2.45;;;18.30;70.80;;;;;;5045309;28;20526;-85
2022/11/10 14:25:39;;;;;;;3.20;1.00;;;18.30;70.70;;;;;;5058789;28;20090;-88
2022/11/10 14:28:43;;;;;;;4.82;1.40;;;18.20;70.80;;;;;;5069307;28;20064;-90
2022/11/10 14:31:46;;;;;;;7.05;2.22;;;18.20;70.80;;;;;;5079313;28;20051;-87
2022/11/10 14:34:52;;;;;;;5.70;1.80;;;18.20;70.80;;;;;;5065121;28;20043;-82
2022/11/10 14:38:00;;;;;;;6.00;1.98;;;18.20;70.80;;;;;;5036646;28;20043;-89
2022/11/10 14:41:05;;;;;;;4.75;1.45;;;18.10;70.60;;;;;;5047612;28;20064;-87
2022/11/10 14:44:23;;;;;;;6.30;1.80;;;18.00;70.50;;;;;;5048289;28;20039;-91
2022/11/10 14:47:32;;;;;;;5.30;1.75;;;18.00;70.50;;;;;;5047015;28;20068;-90
2022/11/10 14:50:35;;;;;;;7.65;2.25;;;18.00;70.60;;;;;;5048972;28;20132;-90
2022/11/10 14:53:46;;;;;;;4.82;1.30;;;17.90;70.60;;;;;;5052764;28;20044;-89
2022/11/10 14:56:50;;;;;;;3.20;1.00;;;17.90;70.60;;;;;;5047821;28;20245;-92
2022/11/10 14:59:53;;;;;;;4.72;1.25;;;17.90;70.70;;;;;;5046712;28;20036;-90
2022/11/10 15:02:57;;;;;;;7.10;2.10;;;17.80;70.50;;;;;;5040768;28;20043;-91
2022/11/10 15:06:03;;;;;;;1.88;1.10;;;17.80;70.60;;;;;;5037646;28;20044;-89
2022/11/10 15:09:30;;;;;;;3.47;1.13;;;17.80;70.70;;;;;;5042985;28;20031;-89
2022/11/10 15:12:33;;;;;;;3.38;1.05;;;17.70;70.50;;;;;;5036832;28;20859;-83
2022/11/10 15:15:36;;;;;;;2.80;1.48;;;17.70;70.60;;;;;;5033424;28;21100;-85
2022/11/10 15:18:40;;;;;;;4.60;1.15;;;17.70;70.70;;;;;;5033692;28;20391;-86
2022/11/10 15:21:43;;;;;;;6.00;1.80;;;17.70;70.70;;;;;;5045006;28;20043;-88
2022/11/10 15:24:48;;;;;;;4.30;1.55;;;17.70;70.80;;;;;;5044416;28;20149;-88
2022/11/10 15:28:21;;;;;;;4.50;1.38;;;17.70;70.70;;;;;;5047356;28;20306;-94
2022/11/10 15:31:29;;;;;;;4.75;1.58;;;17.70;70.70;;;;;;5056570;28;20048;-95
2022/11/10 15:34:44;;;;;;;3.42;1.05;;;17.60;70.60;;;;;;5054002;28;20048;-92
2022/11/10 15:38:01;;;;;;;3.60;1.42;;;17.60;70.60;;;;;;5045093;28;20039;-87
2022/11/10 15:41:10;;;;;;;4.30;1.30;;;17.60;70.70;;;;;;5044780;28;20115;-92
2022/11/10 15:44:26;;;;;;;4.85;1.38;;;17.60;70.80;;;;;;5044829;28;20051;-86
2022/11/10 15:47:30;;;;;;;3.33;1.10;;;17.50;70.60;;;;;;5043503;28;20491;-84
2022/11/10 15:50:33;;;;;;;3.40;1.25;;;17.50;70.70;;;;;;5044673;28;20098;-88
2022/11/10 15:53:43;;;;;;;8.43;2.53;;;17.40;70.60;;;;;;5043664;28;20052;-89
2022/11/10 15:56:46;;;;;;;8.95;2.72;;;17.40;71.20;;;;;;5044286;28;20551;-89
2022/11/10 15:59:50;;;;;;;5.60;1.60;;;17.30;70.50;;;;;;5044730;28;20514;-87
2022/11/10 16:02:53;;;;;;;5.28;1.67;;;17.30;70.60;;;;;;5036484;28;20132;-85
2022/11/10 16:05:56;;;;;;;4.53;1.48;;;17.30;70.70;;;;;;5035122;28;20332;-85
2022/11/10 16:08:59;;;;;;;5.57;2.60;;;17.20;70.60;;;;;;5032009;28;20120;-84
2022/11/10 16:12:03;;;;;;;4.85;1.67;;;17.10;70.50;;;;;;5043541;28;20048;-84
2022/11/10 16:15:18;;;;;;;2.47;1.50;;;17.10;70.70;;;;;;5037583;28;20369;-91
2022/11/10 16:18:24;;;;;;;3.05;1.20;;;17.10;70.70;;;;;;5043818;28;20027;-89
2022/11/10 16:21:28;;;;;;;2.72;1.33;;;17.10;70.80;;;;;;5040437;28;20052;-89
2022/11/10 16:24:31;;;;;;;2.42;1.40;;;17.00;70.70;;;;;;5043567;28;20438;-90
2022/11/10 16:27:35;;;;;;;3.63;2.03;;;17.00;70.80;;;;;;5048746;28;20124;-96
2022/11/10 16:30:41;;;;;;;6.10;1.70;;;16.90;70.80;;;;;;5046926;28;20043;-91
2022/11/10 16:33:45;;;;;;;3.25;1.60;;;16.90;70.80;;;;;;5045907;28;20444;-90